createdAt,value
2023-01-13T00:00:01.614Z,15.37
2023-01-13T00:15:02.245Z,15.73
2023-01-13T00:30:01.898Z,15.84
2023-01-13T00:45:01.532Z,15.88
2023-01-13T01:00:02.165Z,15.44
2023-01-13T01:15:01.860Z,15.2
2023-01-13T01:30:01.640Z,15.19
2023-01-13T01:45:02.270Z,15.46
2023-01-13T02:00:01.933Z,15.2
2023-01-13T02:15:01.605Z,14.96
2023-01-13T02:30:02.263Z,14.78
2023-01-13T02:45:01.946Z,14.95
2023-01-13T03:00:01.605Z,15.12
2023-01-13T03:15:02.243Z,15.03
2023-01-13T03:30:01.953Z,15.1
2023-01-13T03:45:01.647Z,14.72
2023-01-13T04:00:02.295Z,14.6
2023-01-13T04:15:01.980Z,14.66
2023-01-13T04:30:01.640Z,14.29
2023-01-13T04:45:02.294Z,14.17
2023-01-13T05:00:01.912Z,14.3
2023-01-13T05:15:01.561Z,14.49
2023-01-13T05:30:02.345Z,14.68
2023-01-13T05:45:02.030Z,14.19
2023-01-13T06:00:01.704Z,14.34
2023-01-13T06:15:01.491Z,14.27
2023-01-13T06:30:02.375Z,14.24
2023-01-13T06:45:02.043Z,13.94
2023-01-13T07:00:01.936Z,14.17
2023-01-13T07:15:01.667Z,14.29
2023-01-13T07:30:02.336Z,13.84
2023-01-13T07:45:02.008Z,14.05
2023-01-13T08:00:01.729Z,14.24
2023-01-13T08:15:02.385Z,14.49
2023-01-13T08:30:02.052Z,14.61
2023-01-13T08:45:01.734Z,14.84
2023-01-13T09:00:02.407Z,14.88
2023-01-13T09:15:02.091Z,14.95
2023-01-13T09:30:01.782Z,15.14
2023-01-13T09:45:02.486Z,15.34
2023-01-13T10:00:02.188Z,15.64
2023-01-13T10:15:01.851Z,15.56
2023-01-13T10:30:01.578Z,16.14
2023-01-13T10:45:02.267Z,16.67
2023-01-13T11:00:01.924Z,16.31
2023-01-13T11:15:01.671Z,16.96
2023-01-13T11:30:02.352Z,16.14
2023-01-13T11:45:02.062Z,15.33
2023-01-13T12:00:01.737Z,14.13
2023-01-13T12:15:01.416Z,14.45
2023-01-13T12:30:02.113Z,14.26
2023-01-13T12:45:01.793Z,14.65
2023-01-13T13:00:01.435Z,15.13
2023-01-13T13:15:03.576Z,15.49
2023-01-13T13:30:01.775Z,15.85
2023-01-13T13:45:01.467Z,15.45
2023-01-13T14:00:02.086Z,15.38
2023-01-13T14:15:01.825Z,15.5
2023-01-13T14:30:01.666Z,15.56
2023-01-13T14:45:02.288Z,15.35
2023-01-13T15:00:01.924Z,15.15
2023-01-13T15:15:01.581Z,13.82
2023-01-13T15:30:02.239Z,13.71
2023-01-13T15:45:01.857Z,13.16
2023-01-13T16:00:01.523Z,13.26
2023-01-13T16:15:02.153Z,13.01
2023-01-13T16:30:01.964Z,13.07
2023-01-13T16:45:01.706Z,13.08
2023-01-13T17:00:02.334Z,12.77
2023-01-13T17:15:02.010Z,12.16
2023-01-13T17:30:01.719Z,12.15
2023-01-13T17:45:02.367Z,12.1
2023-01-13T18:00:01.998Z,12.45
2023-01-13T18:15:01.718Z,12.72
2023-01-13T18:30:02.408Z,12.96
2023-01-13T18:45:02.046Z,13.06
2023-01-13T19:00:01.689Z,13.34
2023-01-13T19:15:02.326Z,13.48
2023-01-13T19:30:03.511Z,13.17
2023-01-13T19:45:01.856Z,13.27
2023-01-13T20:00:01.487Z,13.25
2023-01-13T20:15:02.156Z,13.55
2023-01-13T20:30:01.808Z,13.45
2023-01-13T20:45:01.528Z,13.11
2023-01-13T21:00:02.229Z,12.38
2023-01-13T21:15:01.892Z,12.05
2023-01-13T21:30:01.552Z,12.23
2023-01-13T21:45:02.191Z,12.19
2023-01-13T22:00:01.828Z,12.34
2023-01-13T22:15:01.651Z,12.25
2023-01-13T22:30:02.516Z,12.44
2023-01-13T22:45:02.171Z,12.54
2023-01-13T23:00:01.789Z,12.57
2023-01-13T23:15:02.469Z,12.66
2023-01-13T23:30:02.195Z,12.68
2023-01-13T23:45:01.896Z,12.58
